TRA97X EHRD-LDZD
Flight info
| Callsign | TRA97X |
|---|---|
| Flight time | 1h 36m |
| Altitude | 39000 |
| Route | LUNIX Z739 MISGO DCT ASBON DCT TUSUK DCT UTABA/N0437F370 DCT BEMKI DCT ELMEM DCT GIRIS DCT NIVAS DCT PEVAL DCT LOS |
| Aircraft | B738/M-SDE2E3FGHIJ1RWXY/LB1 |
Departure
| Time | 2026-04-29 15:42 |
|---|---|
| Airport | Rotterdam The Hague Airport (EHRD) |
Arrival
| Time | 2026-04-29 17:19 |
|---|---|
| Airport | Zadar Airport (LDZD) |
| Time | Latitude | Longitude | Altitude | Speed | Heading |
|---|---|---|---|---|---|
| 2026-04-29 14:53 | 51.95039 | 4.43562 | 0 ft | 0 kts | 327° |
| 2026-04-29 15:39 | 51.95039 | 4.43561 | 0 ft | 0 kts | 327° |
| 2026-04-29 15:39 | 51.95054 | 4.43547 | 0 ft | 5 kts | 333° |
| 2026-04-29 15:39 | 51.95100 | 4.43570 | 0 ft | 8 kts | 5° |
| 2026-04-29 15:39 | 51.95168 | 4.43515 | 0 ft | 14 kts | 328° |
| 2026-04-29 15:40 | 51.95243 | 4.43417 | 0 ft | 11 kts | 277° |
| 2026-04-29 15:40 | 51.95209 | 4.43313 | 0 ft | 10 kts | 237° |
| 2026-04-29 15:40 | 51.95168 | 4.43210 | 0 ft | 12 kts | 237° |
| 2026-04-29 15:40 | 51.95124 | 4.43073 | 0 ft | 15 kts | 245° |
| 2026-04-29 15:41 | 51.95135 | 4.42926 | 1 ft | 14 kts | 322° |
| 2026-04-29 15:41 | 51.95201 | 4.42858 | 2 ft | 7 kts | 334° |
| 2026-04-29 15:41 | 51.95238 | 4.42898 | 2 ft | 4 kts | 57° |
| 2026-04-29 15:41 | 51.95241 | 4.42905 | 1 ft | 1 kts | 57° |
| 2026-04-29 15:42 | 51.95248 | 4.42924 | 2 ft | 6 kts | 58° |
| 2026-04-29 15:42 | 51.95397 | 4.43298 | -1 ft | 78 kts | 57° |
| 2026-04-29 15:42 | 51.95815 | 4.44362 | 9 ft | 142 kts | 60° |
| 2026-04-29 15:42 | 51.96372 | 4.45736 | 746 ft | 140 kts | 57° |
| 2026-04-29 15:43 | 51.96730 | 4.46599 | 1367 ft | 139 kts | 57° |
| 2026-04-29 15:43 | 51.97353 | 4.48152 | 2208 ft | 149 kts | 64° |
| 2026-04-29 15:43 | 51.97894 | 4.49844 | 2503 ft | 183 kts | 65° |
| 2026-04-29 15:43 | 51.98518 | 4.51818 | 2745 ft | 209 kts | 65° |
| 2026-04-29 15:44 | 51.99217 | 4.54043 | 3053 ft | 231 kts | 65° |
| 2026-04-29 15:44 | 51.99995 | 4.56387 | 3735 ft | 241 kts | 56° |
| 2026-04-29 15:44 | 52.01273 | 4.58201 | 4585 ft | 251 kts | 35° |
| 2026-04-29 15:44 | 52.02877 | 4.59448 | 5362 ft | 260 kts | 30° |
| 2026-04-29 15:45 | 52.04548 | 4.60642 | 6199 ft | 262 kts | 31° |
| 2026-04-29 15:45 | 52.05981 | 4.62366 | 7056 ft | 256 kts | 50° |
| 2026-04-29 15:45 | 52.07203 | 4.64482 | 7873 ft | 258 kts | 50° |
| 2026-04-29 15:45 | 52.08329 | 4.66756 | 8606 ft | 259 kts | 66° |
| 2026-04-29 15:46 | 52.08598 | 4.69624 | 9381 ft | 262 kts | 94° |
| 2026-04-29 15:46 | 52.08285 | 4.72569 | 10182 ft | 268 kts | 101° |
| 2026-04-29 15:46 | 52.07813 | 4.75548 | 10702 ft | 281 kts | 102° |
| 2026-04-29 15:46 | 52.07268 | 4.78747 | 10866 ft | 305 kts | 103° |
| 2026-04-29 15:47 | 52.06682 | 4.82148 | 11277 ft | 319 kts | 103° |
| 2026-04-29 15:47 | 52.06083 | 4.85640 | 11995 ft | 322 kts | 103° |
| 2026-04-29 15:47 | 52.05484 | 4.89164 | 12765 ft | 324 kts | 103° |
| 2026-04-29 15:47 | 52.04883 | 4.92728 | 13430 ft | 332 kts | 102° |
| 2026-04-29 15:48 | 52.04274 | 4.96371 | 14143 ft | 337 kts | 102° |
| 2026-04-29 15:48 | 52.03657 | 5.00073 | 14856 ft | 340 kts | 102° |
| 2026-04-29 15:48 | 52.03040 | 5.03778 | 15638 ft | 341 kts | 102° |
| 2026-04-29 15:48 | 52.02418 | 5.07512 | 16352 ft | 344 kts | 102° |
| 2026-04-29 15:49 | 52.01598 | 5.11210 | 16972 ft | 354 kts | 115° |
| 2026-04-29 15:49 | 52.00267 | 5.14600 | 17687 ft | 360 kts | 123° |
| 2026-04-29 15:49 | 51.98720 | 5.17832 | 18357 ft | 365 kts | 126° |
| 2026-04-29 15:49 | 51.97087 | 5.21005 | 18948 ft | 369 kts | 127° |
| 2026-04-29 15:50 | 51.95416 | 5.24176 | 19566 ft | 371 kts | 127° |
| 2026-04-29 15:50 | 51.93734 | 5.27363 | 20193 ft | 372 kts | 127° |
| 2026-04-29 15:50 | 51.92050 | 5.30566 | 20809 ft | 375 kts | 127° |
| 2026-04-29 15:50 | 51.90358 | 5.33803 | 21372 ft | 378 kts | 127° |
| 2026-04-29 15:51 | 51.88659 | 5.37063 | 21968 ft | 380 kts | 126° |
| 2026-04-29 15:51 | 51.86951 | 5.40346 | 22525 ft | 383 kts | 126° |
| 2026-04-29 15:51 | 51.85229 | 5.43655 | 23087 ft | 386 kts | 126° |
| 2026-04-29 15:51 | 51.83495 | 5.46986 | 23671 ft | 388 kts | 126° |
| 2026-04-29 15:52 | 51.81756 | 5.50322 | 24180 ft | 390 kts | 126° |
| 2026-04-29 15:52 | 51.80004 | 5.53678 | 24644 ft | 392 kts | 126° |
| 2026-04-29 15:52 | 51.78241 | 5.57050 | 25096 ft | 394 kts | 126° |
| 2026-04-29 15:52 | 51.76480 | 5.60416 | 25525 ft | 396 kts | 126° |
| 2026-04-29 15:53 | 51.74682 | 5.63849 | 25969 ft | 398 kts | 126° |
| 2026-04-29 15:53 | 51.72888 | 5.67269 | 26386 ft | 401 kts | 126° |
| 2026-04-29 15:53 | 51.71107 | 5.70665 | 26798 ft | 403 kts | 126° |
| 2026-04-29 15:53 | 51.69267 | 5.74170 | 27209 ft | 405 kts | 126° |
| 2026-04-29 15:54 | 51.67461 | 5.77599 | 27602 ft | 408 kts | 126° |
| 2026-04-29 15:54 | 51.65598 | 5.81134 | 28031 ft | 410 kts | 125° |
| 2026-04-29 15:54 | 51.63763 | 5.84661 | 28393 ft | 412 kts | 124° |
| 2026-04-29 15:54 | 51.61949 | 5.88173 | 28750 ft | 414 kts | 124° |
| 2026-04-29 15:55 | 51.60078 | 5.91791 | 29113 ft | 416 kts | 124° |
| 2026-04-29 15:55 | 51.58242 | 5.95328 | 29484 ft | 418 kts | 124° |
| 2026-04-29 15:55 | 51.56375 | 5.98914 | 29845 ft | 420 kts | 124° |
| 2026-04-29 15:55 | 51.54491 | 6.02526 | 30181 ft | 422 kts | 124° |
| 2026-04-29 15:56 | 51.52599 | 6.06151 | 30503 ft | 424 kts | 124° |
| 2026-04-29 15:56 | 51.50700 | 6.09782 | 30768 ft | 426 kts | 124° |
| 2026-04-29 15:56 | 51.48787 | 6.13433 | 31034 ft | 428 kts | 124° |
| 2026-04-29 15:56 | 51.46866 | 6.17099 | 31295 ft | 430 kts | 124° |
| 2026-04-29 15:57 | 51.44934 | 6.20779 | 31553 ft | 432 kts | 125° |
| 2026-04-29 15:57 | 51.42995 | 6.24465 | 31883 ft | 433 kts | 124° |
| 2026-04-29 15:57 | 51.41055 | 6.28146 | 32259 ft | 432 kts | 124° |
| 2026-04-29 15:57 | 51.39119 | 6.31815 | 32643 ft | 431 kts | 124° |
| 2026-04-29 15:58 | 51.37188 | 6.35473 | 32976 ft | 430 kts | 124° |
| 2026-04-29 15:58 | 51.35251 | 6.39136 | 33269 ft | 431 kts | 124° |
| 2026-04-29 15:58 | 51.33316 | 6.42790 | 33594 ft | 430 kts | 124° |
| 2026-04-29 15:58 | 51.32038 | 6.45203 | 33830 ft | 430 kts | 124° |
| 2026-04-29 15:59 | 51.29449 | 6.50072 | 34282 ft | 429 kts | 124° |
| 2026-04-29 15:59 | 51.28171 | 6.52475 | 34458 ft | 429 kts | 124° |
| 2026-04-29 15:59 | 51.26237 | 6.56110 | 34676 ft | 430 kts | 125° |
| 2026-04-29 15:59 | 51.24293 | 6.59755 | 34864 ft | 432 kts | 125° |
| 2026-04-29 16:00 | 51.22345 | 6.63408 | 35095 ft | 432 kts | 125° |
| 2026-04-29 16:00 | 51.20397 | 6.67048 | 35366 ft | 432 kts | 125° |
| 2026-04-29 16:00 | 51.18437 | 6.70710 | 35534 ft | 435 kts | 125° |
| 2026-04-29 16:00 | 51.16522 | 6.74283 | 35683 ft | 437 kts | 125° |
| 2026-04-29 16:01 | 51.14543 | 6.77967 | 35932 ft | 437 kts | 125° |
| 2026-04-29 16:01 | 51.12568 | 6.81643 | 36164 ft | 437 kts | 126° |
| 2026-04-29 16:01 | 51.10585 | 6.85325 | 36283 ft | 440 kts | 126° |
| 2026-04-29 16:01 | 51.08585 | 6.89030 | 36471 ft | 441 kts | 126° |
| 2026-04-29 16:02 | 51.06585 | 6.92735 | 36714 ft | 441 kts | 126° |
| 2026-04-29 16:02 | 51.04586 | 6.96429 | 36938 ft | 441 kts | 126° |
| 2026-04-29 16:02 | 51.02581 | 7.00134 | 37119 ft | 442 kts | 127° |
| 2026-04-29 16:02 | 51.00568 | 7.03845 | 37310 ft | 443 kts | 127° |
| 2026-04-29 16:03 | 50.98555 | 7.07548 | 37530 ft | 443 kts | 127° |
| 2026-04-29 16:03 | 50.96539 | 7.11251 | 37725 ft | 444 kts | 127° |
| 2026-04-29 16:03 | 50.94513 | 7.14969 | 37844 ft | 447 kts | 127° |
| 2026-04-29 16:03 | 50.92477 | 7.18700 | 38018 ft | 447 kts | 127° |
| 2026-04-29 16:04 | 50.90440 | 7.22428 | 38246 ft | 447 kts | 127° |
| 2026-04-29 16:04 | 50.88409 | 7.26139 | 38435 ft | 447 kts | 127° |
| 2026-04-29 16:04 | 50.86369 | 7.29863 | 38590 ft | 448 kts | 127° |
| 2026-04-29 16:04 | 50.84320 | 7.33595 | 38755 ft | 449 kts | 128° |
| 2026-04-29 16:05 | 50.82271 | 7.37323 | 38944 ft | 449 kts | 128° |
| 2026-04-29 16:05 | 50.80222 | 7.41043 | 39076 ft | 449 kts | 128° |
| 2026-04-29 16:05 | 50.78164 | 7.44776 | 39214 ft | 450 kts | 128° |
| 2026-04-29 16:06 | 50.74034 | 7.52251 | 39304 ft | 454 kts | 128° |
| 2026-04-29 16:06 | 50.69216 | 7.58769 | 39295 ft | 460 kts | 144° |
| 2026-04-29 16:07 | 50.63829 | 7.64249 | 39293 ft | 461 kts | 144° |
| 2026-04-29 16:07 | 50.58427 | 7.69713 | 39281 ft | 462 kts | 144° |
| 2026-04-29 16:08 | 50.53075 | 7.75186 | 39298 ft | 462 kts | 144° |
| 2026-04-29 16:08 | 50.47703 | 7.80705 | 39286 ft | 462 kts | 144° |
| 2026-04-29 16:09 | 50.42325 | 7.86223 | 39280 ft | 462 kts | 144° |
| 2026-04-29 16:09 | 50.36939 | 7.91731 | 39290 ft | 463 kts | 144° |
| 2026-04-29 16:10 | 50.31542 | 7.97228 | 39282 ft | 463 kts | 145° |
| 2026-04-29 16:10 | 50.26140 | 8.02716 | 39276 ft | 463 kts | 145° |
| 2026-04-29 16:11 | 50.21147 | 8.07782 | 39273 ft | 464 kts | 145° |
| 2026-04-29 16:11 | 50.15721 | 8.13261 | 39285 ft | 465 kts | 145° |
| 2026-04-29 16:12 | 50.10088 | 8.18237 | 39284 ft | 466 kts | 153° |
| 2026-04-29 16:12 | 50.04176 | 8.22435 | 39283 ft | 467 kts | 154° |
| 2026-04-29 16:13 | 49.98235 | 8.26568 | 39284 ft | 468 kts | 154° |
| 2026-04-29 16:13 | 49.92314 | 8.30775 | 39272 ft | 468 kts | 154° |
| 2026-04-29 16:14 | 49.86402 | 8.35007 | 39245 ft | 468 kts | 154° |
| 2026-04-29 16:14 | 49.80497 | 8.39238 | 39248 ft | 468 kts | 154° |
| 2026-04-29 16:15 | 49.74585 | 8.43456 | 39243 ft | 468 kts | 154° |
| 2026-04-29 16:15 | 49.68662 | 8.47667 | 39239 ft | 468 kts | 154° |
| 2026-04-29 16:16 | 49.62757 | 8.51868 | 39232 ft | 468 kts | 154° |
| 2026-04-29 16:16 | 49.56834 | 8.56057 | 39243 ft | 468 kts | 154° |
| 2026-04-29 16:17 | 49.50907 | 8.60236 | 39241 ft | 469 kts | 154° |
| 2026-04-29 16:17 | 49.44974 | 8.64417 | 39240 ft | 470 kts | 154° |
| 2026-04-29 16:18 | 49.39024 | 8.68589 | 39228 ft | 472 kts | 154° |
| 2026-04-29 16:18 | 49.33051 | 8.72770 | 39234 ft | 473 kts | 154° |
| 2026-04-29 16:19 | 49.27056 | 8.76956 | 39231 ft | 474 kts | 154° |
| 2026-04-29 16:19 | 49.21038 | 8.81150 | 39218 ft | 476 kts | 154° |
| 2026-04-29 16:20 | 49.15002 | 8.85343 | 39215 ft | 476 kts | 155° |
| 2026-04-29 16:20 | 49.08967 | 8.89522 | 39206 ft | 477 kts | 155° |
| 2026-04-29 16:21 | 49.02929 | 8.93688 | 39200 ft | 475 kts | 155° |
| 2026-04-29 16:21 | 48.96953 | 8.97806 | 39188 ft | 474 kts | 155° |
| 2026-04-29 16:22 | 48.90974 | 9.01917 | 39184 ft | 472 kts | 156° |
| 2026-04-29 16:22 | 48.84999 | 9.06013 | 39184 ft | 471 kts | 156° |
| 2026-04-29 16:23 | 48.79076 | 9.10061 | 39186 ft | 470 kts | 156° |
| 2026-04-29 16:23 | 48.73119 | 9.14123 | 39182 ft | 469 kts | 156° |
| 2026-04-29 16:24 | 48.67197 | 9.18150 | 39196 ft | 469 kts | 156° |
| 2026-04-29 16:24 | 48.61234 | 9.22192 | 39189 ft | 470 kts | 156° |
| 2026-04-29 16:25 | 48.55252 | 9.26237 | 39190 ft | 471 kts | 156° |
| 2026-04-29 16:25 | 48.49252 | 9.30285 | 39186 ft | 473 kts | 156° |
| 2026-04-29 16:26 | 48.43246 | 9.34368 | 39177 ft | 475 kts | 153° |
| 2026-04-29 16:26 | 48.37625 | 9.39608 | 39182 ft | 476 kts | 145° |
| 2026-04-29 16:27 | 48.32142 | 9.45223 | 39176 ft | 477 kts | 147° |
| 2026-04-29 16:27 | 48.26570 | 9.50655 | 39187 ft | 478 kts | 147° |
| 2026-04-29 16:28 | 48.20955 | 9.56009 | 39179 ft | 479 kts | 148° |
| 2026-04-29 16:28 | 48.15323 | 9.61347 | 39178 ft | 479 kts | 148° |
| 2026-04-29 16:29 | 48.09687 | 9.66684 | 39180 ft | 479 kts | 148° |
| 2026-04-29 16:29 | 48.04217 | 9.71857 | 39175 ft | 479 kts | 148° |
| 2026-04-29 16:30 | 47.98592 | 9.77163 | 39175 ft | 478 kts | 148° |
| 2026-04-29 16:30 | 47.92980 | 9.82443 | 39177 ft | 476 kts | 149° |
| 2026-04-29 16:31 | 47.87374 | 9.87704 | 39174 ft | 476 kts | 149° |
| 2026-04-29 16:31 | 47.81800 | 9.92916 | 39169 ft | 476 kts | 149° |
| 2026-04-29 16:32 | 47.76124 | 9.98216 | 39150 ft | 475 kts | 149° |
| 2026-04-29 16:32 | 47.70605 | 10.03362 | 39156 ft | 474 kts | 149° |
| 2026-04-29 16:33 | 47.62213 | 10.11148 | 39174 ft | 474 kts | 149° |
| 2026-04-29 16:33 | 47.56608 | 10.16328 | 39149 ft | 475 kts | 149° |
| 2026-04-29 16:34 | 47.51037 | 10.21469 | 39135 ft | 475 kts | 150° |
| 2026-04-29 16:34 | 47.45422 | 10.26640 | 39161 ft | 476 kts | 149° |
| 2026-04-29 16:35 | 47.39802 | 10.31803 | 39166 ft | 477 kts | 149° |
| 2026-04-29 16:35 | 47.34153 | 10.36976 | 39168 ft | 478 kts | 150° |
| 2026-04-29 16:36 | 47.28491 | 10.42139 | 39166 ft | 479 kts | 150° |
| 2026-04-29 16:36 | 47.22811 | 10.47319 | 39153 ft | 481 kts | 150° |
| 2026-04-29 16:37 | 47.17110 | 10.52507 | 39153 ft | 482 kts | 150° |
| 2026-04-29 16:37 | 47.12365 | 10.56808 | 39151 ft | 482 kts | 150° |
| 2026-04-29 16:38 | 47.05701 | 10.62834 | 39129 ft | 481 kts | 150° |
| 2026-04-29 16:38 | 47.00016 | 10.67960 | 39153 ft | 480 kts | 150° |
| 2026-04-29 16:39 | 46.94331 | 10.73074 | 39142 ft | 478 kts | 151° |
| 2026-04-29 16:39 | 46.88678 | 10.78146 | 39144 ft | 477 kts | 151° |
| 2026-04-29 16:40 | 46.83028 | 10.83202 | 39146 ft | 476 kts | 151° |
| 2026-04-29 16:40 | 46.77467 | 10.88414 | 39129 ft | 477 kts | 143° |
| 2026-04-29 16:41 | 46.72813 | 10.95286 | 39161 ft | 476 kts | 132° |
| 2026-04-29 16:41 | 46.68462 | 11.02591 | 39152 ft | 477 kts | 132° |
| 2026-04-29 16:42 | 46.64109 | 11.09826 | 39149 ft | 475 kts | 133° |
| 2026-04-29 16:42 | 46.59716 | 11.17016 | 39146 ft | 474 kts | 133° |
| 2026-04-29 16:43 | 46.55333 | 11.24131 | 39143 ft | 477 kts | 133° |
| 2026-04-29 16:43 | 46.50895 | 11.31311 | 39127 ft | 479 kts | 133° |
| 2026-04-29 16:44 | 46.46434 | 11.38521 | 39137 ft | 481 kts | 133° |
| 2026-04-29 16:44 | 46.41951 | 11.45746 | 39137 ft | 483 kts | 133° |
| 2026-04-29 16:45 | 46.37449 | 11.52985 | 39116 ft | 484 kts | 133° |
| 2026-04-29 16:45 | 46.33672 | 11.59042 | 39118 ft | 484 kts | 133° |
| 2026-04-29 16:46 | 46.29162 | 11.66257 | 39118 ft | 483 kts | 133° |
| 2026-04-29 16:46 | 46.24661 | 11.73439 | 39119 ft | 481 kts | 134° |
| 2026-04-29 16:47 | 46.20168 | 11.80586 | 39114 ft | 479 kts | 134° |
| 2026-04-29 16:47 | 46.15692 | 11.87690 | 39124 ft | 478 kts | 134° |
| 2026-04-29 16:48 | 46.11222 | 11.94765 | 39109 ft | 476 kts | 134° |
| 2026-04-29 16:48 | 46.06794 | 12.01758 | 39115 ft | 475 kts | 134° |
| 2026-04-29 16:49 | 46.02325 | 12.08791 | 39123 ft | 474 kts | 134° |
| 2026-04-29 16:49 | 45.97900 | 12.15743 | 39113 ft | 474 kts | 134° |
| 2026-04-29 16:50 | 45.93409 | 12.22776 | 39138 ft | 475 kts | 134° |
| 2026-04-29 16:50 | 45.89000 | 12.29688 | 39119 ft | 476 kts | 133° |
| 2026-04-29 16:51 | 45.84668 | 12.36863 | 39128 ft | 477 kts | 132° |
| 2026-04-29 16:51 | 45.80359 | 12.44119 | 39129 ft | 478 kts | 132° |
| 2026-04-29 16:52 | 45.76020 | 12.51363 | 39129 ft | 479 kts | 132° |
| 2026-04-29 16:52 | 45.71660 | 12.58589 | 39125 ft | 480 kts | 132° |
| 2026-04-29 16:53 | 45.67283 | 12.65809 | 39118 ft | 481 kts | 133° |
| 2026-04-29 16:53 | 45.62896 | 12.73029 | 39102 ft | 481 kts | 132° |
| 2026-04-29 16:54 | 45.58477 | 12.80281 | 38468 ft | 488 kts | 133° |
| 2026-04-29 16:54 | 45.56255 | 12.83921 | 37895 ft | 487 kts | 133° |
| 2026-04-29 16:54 | 45.54027 | 12.87569 | 37299 ft | 486 kts | 133° |
| 2026-04-29 16:55 | 45.51811 | 12.91191 | 36728 ft | 485 kts | 133° |
| 2026-04-29 16:55 | 45.49593 | 12.94811 | 36148 ft | 484 kts | 133° |
| 2026-04-29 16:55 | 45.47378 | 12.98421 | 35531 ft | 484 kts | 133° |
| 2026-04-29 16:55 | 45.45152 | 13.02042 | 34895 ft | 486 kts | 133° |
| 2026-04-29 16:56 | 45.42924 | 13.05664 | 34230 ft | 487 kts | 134° |
| 2026-04-29 16:56 | 45.40686 | 13.09296 | 33432 ft | 490 kts | 133° |
| 2026-04-29 16:56 | 45.38438 | 13.12941 | 32712 ft | 490 kts | 133° |
| 2026-04-29 16:56 | 45.36192 | 13.16577 | 32153 ft | 487 kts | 133° |
| 2026-04-29 16:57 | 45.33972 | 13.20175 | 31651 ft | 483 kts | 133° |
| 2026-04-29 16:57 | 45.31766 | 13.23735 | 31151 ft | 479 kts | 133° |
| 2026-04-29 16:57 | 45.29569 | 13.27267 | 30672 ft | 475 kts | 133° |
| 2026-04-29 16:57 | 45.27375 | 13.30771 | 30168 ft | 473 kts | 134° |
| 2026-04-29 16:58 | 45.25196 | 13.34237 | 29598 ft | 469 kts | 134° |
| 2026-04-29 16:58 | 45.23034 | 13.37677 | 29064 ft | 465 kts | 133° |
| 2026-04-29 16:58 | 45.20893 | 13.41084 | 28563 ft | 460 kts | 133° |
| 2026-04-29 16:58 | 45.18773 | 13.44446 | 28062 ft | 456 kts | 134° |
| 2026-04-29 16:59 | 45.16667 | 13.47778 | 27547 ft | 452 kts | 133° |
| 2026-04-29 16:59 | 45.14582 | 13.51074 | 27097 ft | 447 kts | 133° |
| 2026-04-29 16:59 | 45.12515 | 13.54346 | 26607 ft | 444 kts | 133° |
| 2026-04-29 16:59 | 45.10466 | 13.57591 | 26127 ft | 441 kts | 133° |
| 2026-04-29 17:00 | 45.08429 | 13.60810 | 25652 ft | 438 kts | 133° |
| 2026-04-29 17:00 | 45.06397 | 13.64013 | 25181 ft | 435 kts | 133° |
| 2026-04-29 17:00 | 45.04382 | 13.67176 | 24710 ft | 433 kts | 133° |
| 2026-04-29 17:00 | 45.02367 | 13.70336 | 24232 ft | 431 kts | 133° |
| 2026-04-29 17:01 | 45.00368 | 13.73476 | 23746 ft | 430 kts | 133° |
| 2026-04-29 17:01 | 44.98373 | 13.76605 | 23176 ft | 428 kts | 133° |
| 2026-04-29 17:01 | 44.96384 | 13.79719 | 22662 ft | 425 kts | 133° |
| 2026-04-29 17:01 | 44.94415 | 13.82805 | 22174 ft | 421 kts | 133° |
| 2026-04-29 17:02 | 44.92462 | 13.85861 | 21697 ft | 417 kts | 133° |
| 2026-04-29 17:02 | 44.90531 | 13.88875 | 21248 ft | 413 kts | 133° |
| 2026-04-29 17:02 | 44.88615 | 13.91861 | 20784 ft | 409 kts | 133° |
| 2026-04-29 17:02 | 44.86712 | 13.94825 | 20329 ft | 406 kts | 133° |
| 2026-04-29 17:03 | 44.84827 | 13.97758 | 19881 ft | 402 kts | 134° |
| 2026-04-29 17:03 | 44.82955 | 14.00673 | 19435 ft | 399 kts | 134° |
| 2026-04-29 17:03 | 44.81097 | 14.03561 | 18994 ft | 397 kts | 134° |
| 2026-04-29 17:03 | 44.79248 | 14.06430 | 18575 ft | 394 kts | 134° |
| 2026-04-29 17:04 | 44.77414 | 14.09275 | 18084 ft | 392 kts | 134° |
| 2026-04-29 17:04 | 44.75581 | 14.12111 | 17594 ft | 389 kts | 134° |
| 2026-04-29 17:04 | 44.73770 | 14.14914 | 17145 ft | 386 kts | 134° |
| 2026-04-29 17:04 | 44.71968 | 14.17699 | 16689 ft | 383 kts | 134° |
| 2026-04-29 17:05 | 44.70188 | 14.20448 | 16256 ft | 379 kts | 134° |
| 2026-04-29 17:05 | 44.68415 | 14.23181 | 15823 ft | 377 kts | 134° |
| 2026-04-29 17:05 | 44.66658 | 14.25892 | 15395 ft | 374 kts | 134° |
| 2026-04-29 17:05 | 44.64913 | 14.28583 | 14975 ft | 371 kts | 134° |
| 2026-04-29 17:06 | 44.63175 | 14.31254 | 14545 ft | 369 kts | 134° |
| 2026-04-29 17:06 | 44.61450 | 14.33900 | 14107 ft | 367 kts | 134° |
| 2026-04-29 17:06 | 44.59731 | 14.36535 | 13651 ft | 364 kts | 134° |
| 2026-04-29 17:06 | 44.58030 | 14.39150 | 13191 ft | 362 kts | 134° |
| 2026-04-29 17:07 | 44.56342 | 14.41738 | 12743 ft | 358 kts | 134° |
| 2026-04-29 17:07 | 44.54665 | 14.44301 | 12325 ft | 355 kts | 134° |
| 2026-04-29 17:07 | 44.53016 | 14.46856 | 11892 ft | 352 kts | 131° |
| 2026-04-29 17:07 | 44.51775 | 14.49760 | 11477 ft | 352 kts | 115° |
| 2026-04-29 17:08 | 44.50804 | 14.52894 | 11060 ft | 350 kts | 114° |
| 2026-04-29 17:08 | 44.49855 | 14.56063 | 10642 ft | 347 kts | 114° |
| 2026-04-29 17:08 | 44.48935 | 14.59109 | 10419 ft | 339 kts | 114° |
| 2026-04-29 17:08 | 44.48016 | 14.62093 | 10263 ft | 329 kts | 114° |
| 2026-04-29 17:09 | 44.47117 | 14.64981 | 10122 ft | 319 kts | 115° |
| 2026-04-29 17:09 | 44.46239 | 14.67780 | 9915 ft | 312 kts | 115° |
| 2026-04-29 17:09 | 44.45366 | 14.70555 | 9580 ft | 310 kts | 115° |
| 2026-04-29 17:09 | 44.44493 | 14.73306 | 9256 ft | 307 kts | 115° |
| 2026-04-29 17:10 | 44.43629 | 14.76028 | 8938 ft | 305 kts | 115° |
| 2026-04-29 17:10 | 44.42771 | 14.78725 | 8623 ft | 302 kts | 115° |
| 2026-04-29 17:10 | 44.41920 | 14.81397 | 8311 ft | 300 kts | 115° |
| 2026-04-29 17:10 | 44.41074 | 14.84051 | 7987 ft | 298 kts | 115° |
| 2026-04-29 17:11 | 44.40232 | 14.86690 | 7674 ft | 296 kts | 115° |
| 2026-04-29 17:11 | 44.39394 | 14.89311 | 7374 ft | 294 kts | 115° |
| 2026-04-29 17:11 | 44.38563 | 14.91912 | 7069 ft | 292 kts | 115° |
| 2026-04-29 17:11 | 44.37736 | 14.94497 | 6767 ft | 291 kts | 115° |
| 2026-04-29 17:12 | 44.36911 | 14.97073 | 6465 ft | 289 kts | 115° |
| 2026-04-29 17:12 | 44.36093 | 14.99624 | 6148 ft | 287 kts | 116° |
| 2026-04-29 17:12 | 44.34998 | 15.01917 | 5813 ft | 283 kts | 136° |
| 2026-04-29 17:12 | 44.34073 | 15.03175 | 5635 ft | 280 kts | 137° |
| 2026-04-29 17:13 | 44.32233 | 15.05644 | 5218 ft | 268 kts | 137° |
| 2026-04-29 17:13 | 44.30913 | 15.07426 | 4924 ft | 259 kts | 137° |
| 2026-04-29 17:13 | 44.29643 | 15.09148 | 4617 ft | 250 kts | 136° |
| 2026-04-29 17:13 | 44.28413 | 15.10812 | 4335 ft | 241 kts | 136° |
| 2026-04-29 17:14 | 44.27230 | 15.12416 | 4074 ft | 233 kts | 136° |
| 2026-04-29 17:14 | 44.26091 | 15.13957 | 3887 ft | 223 kts | 135° |
| 2026-04-29 17:14 | 44.25007 | 15.15428 | 3773 ft | 211 kts | 135° |
| 2026-04-29 17:14 | 44.23955 | 15.16853 | 3573 ft | 213 kts | 135° |
| 2026-04-29 17:15 | 44.22896 | 15.18289 | 3311 ft | 211 kts | 135° |
| 2026-04-29 17:15 | 44.21858 | 15.19697 | 3032 ft | 203 kts | 134° |
| 2026-04-29 17:15 | 44.20880 | 15.21023 | 2773 ft | 189 kts | 133° |
| 2026-04-29 17:15 | 44.19971 | 15.22260 | 2525 ft | 177 kts | 133° |
| 2026-04-29 17:16 | 44.19108 | 15.23430 | 2319 ft | 171 kts | 133° |
| 2026-04-29 17:16 | 44.18250 | 15.24594 | 2090 ft | 174 kts | 134° |
| 2026-04-29 17:16 | 44.17378 | 15.25780 | 1848 ft | 176 kts | 135° |
| 2026-04-29 17:16 | 44.16504 | 15.26965 | 1637 ft | 173 kts | 135° |
| 2026-04-29 17:17 | 44.15676 | 15.28087 | 1392 ft | 160 kts | 134° |
| 2026-04-29 17:17 | 44.14911 | 15.29130 | 1209 ft | 154 kts | 134° |
| 2026-04-29 17:17 | 44.14157 | 15.30155 | 969 ft | 148 kts | 126° |
| 2026-04-29 17:17 | 44.13427 | 15.31103 | 787 ft | 141 kts | 136° |
| 2026-04-29 17:18 | 44.12753 | 15.32076 | 615 ft | 140 kts | 132° |
| 2026-04-29 17:18 | 44.12050 | 15.33026 | 427 ft | 142 kts | 135° |
| 2026-04-29 17:18 | 44.11338 | 15.33986 | 271 ft | 139 kts | 136° |
| 2026-04-29 17:18 | 44.10751 | 15.34779 | 264 ft | 90 kts | 137° |
| 2026-04-29 17:19 | 44.10455 | 15.35178 | 263 ft | 29 kts | 136° |
| 2026-04-29 17:19 | 44.10330 | 15.35349 | 262 ft | 24 kts | 136° |
| 2026-04-29 17:19 | 44.10212 | 15.35505 | 263 ft | 23 kts | 137° |
| 2026-04-29 17:19 | 44.10096 | 15.35653 | 265 ft | 22 kts | 136° |
| 2026-04-29 17:20 | 44.10000 | 15.35674 | 266 ft | 15 kts | 221° |
| 2026-04-29 17:20 | 44.09925 | 15.35573 | 268 ft | 15 kts | 224° |
| 2026-04-29 17:20 | 44.09826 | 15.35534 | 260 ft | 16 kts | 178° |
| 2026-04-29 17:20 | 44.09755 | 15.35538 | 259 ft | 6 kts | 178° |
| 2026-04-29 17:21 | 44.09731 | 15.35539 | 259 ft | 1 kts | 178° |
| 2026-04-29 17:21 | 44.09726 | 15.35539 | 259 ft | 1 kts | 178° |
| 2026-04-29 17:21 | 44.09722 | 15.35539 | 259 ft | 1 kts | 178° |
| 2026-04-29 17:21 | 44.09717 | 15.35540 | 259 ft | 2 kts | 178° |
| 2026-04-29 17:22 | 44.09689 | 15.35541 | 259 ft | 6 kts | 178° |
| 2026-04-29 17:22 | 44.09642 | 15.35530 | 259 ft | 8 kts | 224° |
| 2026-04-29 17:22 | 44.09643 | 15.35464 | 259 ft | 8 kts | 319° |
| 2026-04-29 17:22 | 44.09667 | 15.35440 | 259 ft | 1 kts | 326° |
| 2026-04-29 17:23 | 44.09672 | 15.35436 | 261 ft | 0 kts | 325° |